Gavdos, Greece
Current Conditions -  °F | °C
As of 7:20 AM on Friday 31 Oct 2014 (Local Time) from LGSA Reporting Station
Light Rain Light Rain  
Wind Chill: 57°   Ceiling: 2500
Heat Index: 57°   Visibility: 6mi
Dew Point: 55°   Wind: 6mph
Humidity: 94%   Direction: 150°SSE
Pressure: 30.03"   Gusts: NA
Location:  34.84°N, 24.09°E
Report Text: LGSA 310420Z 15005KT 9000 -RA FEW018TCU BKN025 14/13 Q1017 RERA
Loading
Personal Weather Stations






























Interactive Weather Map
Tropical Storm Tracking
New forecast layout! Learn more

10-Day Weather Forecast

Advertisements
Track Severe Weather on mobile